createdAt,value
2018-12-09T00:00:26.482Z,95792.03
2018-12-09T00:01:30.356Z,95845.57
2018-12-09T00:02:37.651Z,95794.50
2018-12-09T00:04:52.030Z,95806.44
2018-12-09T00:06:01.466Z,95810.25
2018-12-09T00:07:14.279Z,95814.31
2018-12-09T00:08:18.275Z,95820.06
2018-12-09T00:09:24.408Z,95812.08
2018-12-09T00:10:28.763Z,95803.34
2018-12-09T00:11:37.845Z,95787.26
2018-12-09T00:12:41.841Z,95781.39
2018-12-09T00:13:46.841Z,95811.52
2018-12-09T00:14:57.585Z,95811.70
2018-12-09T00:16:02.318Z,95818.33
2018-12-09T00:17:11.665Z,95819.54
2018-12-09T00:18:25.978Z,95807.19
2018-12-09T00:19:38.626Z,95805.25
2018-12-09T00:20:42.714Z,95776.31
2018-12-09T00:23:07.773Z,95792.13
2018-12-09T00:24:18.777Z,95785.51
2018-12-09T00:25:27.888Z,95790.39
2018-12-09T00:26:31.102Z,95774.30
2018-12-09T00:27:45.889Z,95782.74
2018-12-09T00:40:03.825Z,95751.52
2018-12-09T00:43:30.089Z,95855.63
2018-12-09T00:44:35.237Z,95856.88
2018-12-09T00:45:39.095Z,95816.75
2018-12-09T00:46:43.530Z,95800.72
2018-12-09T00:49:03.786Z,95805.15
2018-12-09T00:50:09.664Z,95813.77
2018-12-09T00:53:40.116Z,95793.45
2018-12-09T00:56:07.300Z,95800.95
2018-12-09T01:01:21.158Z,95822.37
2018-12-09T01:02:33.215Z,95820.50
2018-12-09T01:06:07.062Z,95818.38
2018-12-09T01:07:12.480Z,95815.53
2018-12-09T01:08:18.343Z,95812.42
2018-12-09T01:09:33.060Z,95825.36
2018-12-09T01:10:42.018Z,95818.74
2018-12-09T01:11:50.849Z,95809.78
2018-12-09T01:14:25.212Z,95819.94
2018-12-09T01:15:42.107Z,95836.87
2018-12-09T01:19:21.513Z,95805.36
2018-12-09T01:20:26.055Z,95825.02
2018-12-09T01:21:34.257Z,95799.55
2018-12-09T01:22:45.359Z,95828.21
2018-12-09T01:24:00.422Z,95816.26
2018-12-09T01:25:14.745Z,95770.83
2018-12-09T01:26:21.987Z,95840.31
2018-12-09T01:29:24.454Z,95812.15
2018-12-09T01:30:33.403Z,95843.58
2018-12-09T01:31:38.996Z,95825.94
2018-12-09T01:32:46.929Z,95829.70
2018-12-09T01:33:53.749Z,95833.47
2018-12-09T01:34:59.113Z,95812.31
2018-12-09T01:36:03.880Z,95805.47
2018-12-09T01:38:21.278Z,95794.49
2018-12-09T01:39:32.408Z,95767.34
2018-12-09T01:40:41.138Z,95780.13
2018-12-09T01:41:45.339Z,95746.72
2018-12-09T01:44:37.840Z,95795.69
2018-12-09T01:45:41.753Z,95793.94
2018-12-09T01:46:47.010Z,95712.41
2018-12-09T01:47:55.558Z,95794.44
2018-12-09T01:49:06.513Z,95783.79
2018-12-09T01:50:29.710Z,95809.14
2018-12-09T02:02:03.631Z,95843.42
2018-12-09T02:03:18.944Z,95847.55
2018-12-09T02:04:34.604Z,95811.92
2018-12-09T02:05:39.540Z,95851.24
2018-12-09T02:08:13.861Z,95798.66
2018-12-09T02:12:42.465Z,95846.28
2018-12-09T02:14:00.644Z,95834.86
2018-12-09T02:15:15.806Z,95804.72
2018-12-09T02:16:20.543Z,95835.00
2018-12-09T02:17:27.739Z,95810.99
2018-12-09T02:18:35.832Z,95853.45
2018-12-09T02:19:40.466Z,95826.80
2018-12-09T02:20:44.193Z,95838.92
2018-12-09T02:21:47.624Z,95809.95
2018-12-09T02:22:52.245Z,95821.55
2018-12-09T02:23:57.117Z,95839.34
2018-12-09T02:25:02.599Z,95847.73
2018-12-09T02:26:06.573Z,95832.37
2018-12-09T02:27:12.718Z,95813.05
2018-12-09T02:28:15.650Z,95826.67
2018-12-09T02:29:19.341Z,95816.50
2018-12-09T02:30:26.745Z,95845.83
2018-12-09T02:31:31.471Z,95811.48
2018-12-09T02:32:36.639Z,95831.48
2018-12-09T02:33:44.066Z,95835.36
2018-12-09T02:34:48.948Z,95842.69
2018-12-09T02:37:05.519Z,95857.36
2018-12-09T02:38:12.023Z,95843.36
2018-12-09T02:44:59.263Z,95798.72
2018-12-09T02:46:12.839Z,95829.30
2018-12-09T02:47:17.742Z,95820.08
2018-12-09T02:53:39.083Z,95818.37
2018-12-09T02:54:42.458Z,95833.88
2018-12-09T02:55:45.570Z,95808.16
2018-12-09T02:58:02.885Z,95821.39
2018-12-09T02:59:06.301Z,95819.27
2018-12-09T03:00:10.502Z,95778.81
2018-12-09T03:01:13.960Z,95843.83
2018-12-09T03:02:18.310Z,95821.61
2018-12-09T03:03:21.775Z,95821.11
2018-12-09T03:04:34.917Z,95812.44
2018-12-09T03:05:38.291Z,95826.19
2018-12-09T03:06:43.877Z,95833.59
2018-12-09T03:07:47.866Z,95839.77
2018-12-09T03:08:51.051Z,95842.77
2018-12-09T03:10:02.335Z,95813.94
2018-12-09T03:11:05.688Z,95814.34
2018-12-09T03:12:08.731Z,95865.30
2018-12-09T03:13:13.414Z,95839.58
2018-12-09T03:14:19.832Z,95829.69
2018-12-09T03:15:23.688Z,95834.31
2018-12-09T03:16:26.594Z,95827.88
2018-12-09T03:17:29.953Z,95821.48
2018-12-09T03:18:42.822Z,95848.42
2018-12-09T03:19:46.510Z,95817.63
2018-12-09T03:20:52.079Z,95837.86
2018-12-09T03:21:55.736Z,95836.72
2018-12-09T03:22:59.279Z,95820.62
2018-12-09T03:24:03.130Z,95835.15
2018-12-09T03:26:26.203Z,95859.81
2018-12-09T03:27:30.530Z,95813.05
2018-12-09T03:28:34.039Z,95864.09
2018-12-09T03:29:37.042Z,95852.77
2018-12-09T03:30:42.572Z,95858.47
2018-12-09T03:31:45.962Z,95839.59
2018-12-09T03:32:48.942Z,95863.66
2018-12-09T03:33:52.045Z,95817.05
2018-12-09T03:34:56.294Z,95855.02
2018-12-09T03:35:59.263Z,95834.61
2018-12-09T03:37:02.212Z,95845.84
2018-12-09T03:38:06.698Z,95829.59
2018-12-09T03:39:10.160Z,95822.91
2018-12-09T03:40:13.428Z,95826.34
2018-12-09T03:41:16.334Z,95853.52
2018-12-09T03:42:26.102Z,95850.81
2018-12-09T03:44:52.684Z,95819.62
2018-12-09T03:45:55.824Z,95840.13
2018-12-09T03:46:58.894Z,95807.58
2018-12-09T03:48:01.846Z,95858.08
2018-12-09T03:49:05.033Z,95842.44
2018-12-09T03:50:12.947Z,95832.96
2018-12-09T03:51:16.588Z,95859.00
2018-12-09T03:52:19.557Z,95858.02
2018-12-09T03:53:23.147Z,95865.84
2018-12-09T03:54:26.846Z,95859.15
2018-12-09T03:55:37.833Z,95853.19
2018-12-09T03:56:41.482Z,95851.76
2018-12-09T03:57:46.375Z,95829.92
2018-12-09T03:58:50.112Z,95835.77
2018-12-09T03:59:53.726Z,95842.17
2018-12-09T04:00:56.926Z,95856.44
2018-12-09T04:02:00.644Z,95838.41
2018-12-09T04:03:04.475Z,95858.71
2018-12-09T04:04:11.362Z,95853.00
2018-12-09T04:05:15.687Z,95844.92
2018-12-09T04:06:25.648Z,95836.11
2018-12-09T04:07:32.512Z,95868.50
2018-12-09T04:08:36.358Z,95833.61
2018-12-09T04:09:40.952Z,95879.45
2018-12-09T04:10:48.095Z,95852.92
2018-12-09T04:11:51.518Z,95818.19
2018-12-09T04:14:43.481Z,95906.88
2018-12-09T04:15:46.564Z,95894.21
2018-12-09T04:16:49.974Z,95909.93
2018-12-09T04:17:54.416Z,95906.38
2018-12-09T04:18:58.096Z,95928.80
2018-12-09T04:20:01.178Z,95887.33
2018-12-09T04:21:04.562Z,95923.34
2018-12-09T04:22:07.739Z,95929.23
2018-12-09T04:23:10.856Z,95933.52
2018-12-09T04:24:13.935Z,95930.81
2018-12-09T04:25:18.368Z,95936.27
2018-12-09T04:26:21.235Z,95932.48
2018-12-09T04:27:25.648Z,95939.41
2018-12-09T04:28:33.132Z,95950.27
2018-12-09T04:29:40.307Z,95951.05
2018-12-09T04:30:43.583Z,95948.94
2018-12-09T04:31:46.848Z,95892.34
2018-12-09T04:32:49.975Z,95941.05
2018-12-09T04:33:53.087Z,95936.09
2018-12-09T04:34:56.335Z,95939.10
2018-12-09T04:41:28.926Z,95924.69
2018-12-09T04:43:44.479Z,95964.56
2018-12-09T04:44:47.297Z,95913.15
2018-12-09T04:45:51.134Z,95944.45
2018-12-09T04:46:59.459Z,95900.52
2018-12-09T04:48:03.356Z,95910.16
2018-12-09T04:49:06.231Z,95951.55
2018-12-09T04:50:09.218Z,95947.34
2018-12-09T04:51:14.856Z,95922.59
2018-12-09T04:52:17.768Z,95965.38
2018-12-09T04:53:21.811Z,95955.98
2018-12-09T04:54:30.658Z,95875.09
2018-12-09T05:00:28.031Z,95944.03
2018-12-09T05:01:35.209Z,95949.75
2018-12-09T05:02:38.346Z,95957.98
2018-12-09T05:03:41.663Z,95955.83
2018-12-09T05:04:44.827Z,95954.19
2018-12-09T05:05:48.107Z,95966.53
2018-12-09T05:06:52.104Z,95964.80
2018-12-09T05:07:55.327Z,95968.07
2018-12-09T05:08:58.246Z,95955.70
2018-12-09T05:10:07.330Z,95957.59
2018-12-09T05:11:10.745Z,95948.41
2018-12-09T05:12:16.250Z,95969.74
2018-12-09T05:13:21.806Z,95974.27
2018-12-09T05:14:25.777Z,95977.32
2018-12-09T05:15:29.405Z,95982.59
2018-12-09T05:16:32.994Z,95961.87
2018-12-09T05:17:36.798Z,95956.12
2018-12-09T05:18:39.971Z,95981.51
2018-12-09T05:19:44.410Z,95973.54
2018-12-09T05:20:47.376Z,95974.37
2018-12-09T05:21:50.392Z,95970.32
2018-12-09T05:22:53.311Z,95960.53
2018-12-09T05:23:56.384Z,95967.95
2018-12-09T05:24:59.803Z,95978.31
2018-12-09T05:27:27.921Z,95981.49
2018-12-09T05:28:34.284Z,95973.98
2018-12-09T05:29:37.883Z,95997.13
2018-12-09T05:30:53.958Z,95965.42
2018-12-09T05:31:57.681Z,96001.36
2018-12-09T05:33:01.770Z,95977.55
2018-12-09T05:35:22.876Z,95983.92
2018-12-09T05:36:30.174Z,95992.59
2018-12-09T05:37:34.697Z,95986.95
2018-12-09T05:38:41.002Z,95988.62
2018-12-09T05:39:52.216Z,96003.14
2018-12-09T05:41:01.371Z,95993.81
2018-12-09T05:42:35.212Z,96004.80
2018-12-09T05:43:53.805Z,95980.51
2018-12-09T05:45:17.851Z,95995.30
2018-12-09T05:46:34.220Z,95982.59
2018-12-09T05:49:18.442Z,95982.94
2018-12-09T05:50:22.836Z,95998.01
2018-12-09T05:51:37.277Z,96003.73
2018-12-09T05:52:43.779Z,95997.64
2018-12-09T05:54:10.503Z,95976.90
2018-12-09T05:55:15.598Z,95994.39
2018-12-09T05:56:25.525Z,96001.02
2018-12-09T06:46:49.983Z,96034.55
2018-12-09T06:48:06.445Z,96053.20
2018-12-09T06:49:16.971Z,96048.35
2018-12-09T06:50:30.320Z,96044.30
2018-12-09T06:51:34.394Z,96052.20
2018-12-09T06:52:39.938Z,96045.45
2018-12-09T06:53:45.178Z,96079.98
2018-12-09T06:54:49.054Z,96047.48
2018-12-09T06:57:10.094Z,95990.95
2018-12-09T06:58:15.084Z,96042.66
2018-12-09T06:59:19.976Z,96051.89
2018-12-09T07:00:24.416Z,96019.05
2018-12-09T07:01:28.001Z,96005.63
2018-12-09T07:02:39.332Z,96050.89
2018-12-09T07:03:49.178Z,96042.25
2018-12-09T07:04:58.447Z,96013.69
2018-12-09T07:06:03.736Z,96034.23
2018-12-09T07:07:13.653Z,96002.41
2018-12-09T07:09:46.576Z,96003.08
2018-12-09T07:10:56.270Z,96044.08
2018-12-09T07:12:02.273Z,96047.88
2018-12-09T07:13:15.310Z,96066.98
2018-12-09T07:15:32.417Z,96055.84
2018-12-09T07:16:42.902Z,96072.51
2018-12-09T07:17:47.303Z,96083.14
2018-12-09T07:18:52.718Z,96050.61
2018-12-09T07:19:57.677Z,96051.22
2018-12-09T07:21:00.915Z,96067.20
2018-12-09T07:22:04.550Z,96079.01
2018-12-09T07:23:10.596Z,96056.49
2018-12-09T07:24:16.538Z,96080.94
2018-12-09T07:25:28.657Z,96082.93
2018-12-09T07:26:39.038Z,96065.17
2018-12-09T07:27:42.525Z,96083.86
2018-12-09T07:28:45.751Z,96079.81
2018-12-09T07:29:51.218Z,96085.11
2018-12-09T07:30:56.293Z,96104.55
2018-12-09T07:32:01.891Z,96098.14
2018-12-09T07:33:11.050Z,96098.27
2018-12-09T07:34:14.838Z,96119.78
2018-12-09T07:35:20.381Z,96078.11
2018-12-09T07:36:25.264Z,96098.19
2018-12-09T07:37:31.381Z,96100.36
2018-12-09T07:42:25.161Z,96107.31
2018-12-09T07:43:29.447Z,96090.33
2018-12-09T07:44:33.206Z,96091.17
2018-12-09T07:45:38.972Z,96116.97
2018-12-09T07:46:42.713Z,96075.36
2018-12-09T07:47:46.435Z,96085.00
2018-12-09T07:48:50.979Z,96106.73
2018-12-09T07:51:28.573Z,96125.27
2018-12-09T07:52:43.409Z,96145.99
2018-12-09T07:53:51.634Z,96146.92
2018-12-09T07:55:06.454Z,96105.87
2018-12-09T07:56:15.469Z,96136.73
2018-12-09T07:57:20.087Z,96145.86
2018-12-09T07:59:53.730Z,96114.91
2018-12-09T08:00:57.097Z,96136.70
2018-12-09T08:04:39.274Z,96136.41
2018-12-09T08:06:54.123Z,96153.91
2018-12-09T08:07:57.957Z,96172.94
2018-12-09T08:13:57.759Z,96152.79
2018-12-09T08:15:03.295Z,96168.27
2018-12-09T08:17:28.275Z,96168.19
2018-12-09T08:18:34.919Z,96148.59
2018-12-09T08:20:53.333Z,96168.09
2018-12-09T08:23:15.597Z,96192.20
2018-12-09T08:24:21.174Z,96178.92
2018-12-09T08:25:34.044Z,96181.38
2018-12-09T08:26:40.193Z,96183.41
2018-12-09T08:27:44.277Z,96186.78
2018-12-09T08:28:48.410Z,96189.19
2018-12-09T08:29:52.931Z,96180.97
2018-12-09T08:32:15.068Z,96193.43
2018-12-09T08:34:30.083Z,96195.38
2018-12-09T08:36:51.764Z,96187.03
2018-12-09T08:37:57.284Z,96206.17
2018-12-09T08:40:15.914Z,96202.87
2018-12-09T08:41:20.390Z,96216.61
2018-12-09T08:46:16.227Z,96208.45
2018-12-09T08:47:20.787Z,96213.56
2018-12-09T08:48:27.047Z,96207.05
2018-12-09T08:49:30.640Z,96209.02
2018-12-09T08:50:34.237Z,96233.36
2018-12-09T08:51:39.214Z,96214.78
2018-12-09T08:55:46.752Z,96218.06
2018-12-09T08:56:54.603Z,96230.36
2018-12-09T08:59:11.009Z,96225.88
2018-12-09T09:00:15.942Z,96215.48
2018-12-09T09:01:24.927Z,96227.48
2018-12-09T09:04:09.069Z,96223.05
2018-12-09T09:05:12.218Z,96218.52
2018-12-09T09:06:16.826Z,96215.23
2018-12-09T09:07:25.209Z,96218.49
2018-12-09T09:08:33.896Z,96235.86
2018-12-09T09:09:46.301Z,96209.48
2018-12-09T09:10:51.793Z,96227.18
2018-12-09T09:11:58.135Z,96236.97
2018-12-09T09:13:02.203Z,96227.98
2018-12-09T09:14:09.732Z,96236.22
2018-12-09T09:15:19.283Z,96223.92
2018-12-09T09:17:40.281Z,96234.03
2018-12-09T09:18:50.234Z,96247.38
2018-12-09T09:22:27.905Z,96227.73
2018-12-09T09:23:39.879Z,96232.52
2018-12-09T09:24:44.465Z,96234.38
2018-12-09T09:28:15.203Z,96233.33
2018-12-09T09:29:23.090Z,96253.18
2018-12-09T09:30:27.455Z,96255.41
2018-12-09T09:31:33.708Z,96271.48
2018-12-09T09:32:38.740Z,96243.87
2018-12-09T09:33:42.714Z,96254.04
2018-12-09T09:34:48.244Z,96248.53
2018-12-09T09:35:52.193Z,96245.25
2018-12-09T09:36:55.348Z,96251.09
2018-12-09T09:37:59.771Z,96248.73
2018-12-09T09:43:57.967Z,96256.64
2018-12-09T09:45:01.660Z,96259.23
2018-12-09T09:46:16.340Z,96245.58
2018-12-09T09:47:29.209Z,96242.33
2018-12-09T09:48:34.391Z,96271.61
2018-12-09T09:49:41.373Z,96268.91
2018-12-09T09:52:12.213Z,96275.91
2018-12-09T09:53:18.723Z,96271.02
2018-12-09T09:58:18.549Z,96267.13
2018-12-09T09:59:28.726Z,96264.54
2018-12-09T10:00:32.502Z,96265.23
2018-12-09T10:01:36.203Z,96261.73
2018-12-09T10:02:39.933Z,96263.19
2018-12-09T10:03:46.075Z,96252.27
2018-12-09T10:04:52.647Z,96255.30
2018-12-09T10:05:55.697Z,96250.55
2018-12-09T10:07:09.348Z,96241.09
2018-12-09T10:08:20.217Z,96246.48
2018-12-09T10:09:28.509Z,96242.42
2018-12-09T10:10:35.661Z,96261.11
2018-12-09T10:11:43.714Z,96253.80
2018-12-09T10:14:05.712Z,96262.43
2018-12-09T10:15:11.881Z,96257.13
2018-12-09T10:17:34.487Z,96257.46
2018-12-09T10:18:38.840Z,96262.52
2018-12-09T10:21:01.528Z,96210.23
2018-12-09T10:23:23.015Z,96255.39
2018-12-09T10:24:34.860Z,96249.86
2018-12-09T10:26:56.950Z,96261.64
2018-12-09T10:29:16.069Z,96265.42
2018-12-09T10:31:32.153Z,96268.27
2018-12-09T10:32:38.463Z,96270.28
2018-12-09T10:33:49.569Z,96245.38
2018-12-09T10:35:01.471Z,96257.52
2018-12-09T10:36:09.651Z,96255.79
2018-12-09T10:37:15.479Z,96257.24
2018-12-09T10:38:24.036Z,96269.66
2018-12-09T10:39:34.997Z,96267.53
2018-12-09T10:40:48.477Z,96237.89
2018-12-09T10:41:53.751Z,96246.11
2018-12-09T10:45:35.548Z,96236.04
2018-12-09T10:46:44.979Z,96239.16
2018-12-09T10:47:53.165Z,96241.30
2018-12-09T10:50:13.616Z,96248.98
2018-12-09T10:51:25.770Z,96201.17
2018-12-09T10:52:38.483Z,96260.73
2018-12-09T10:53:49.362Z,96219.27
2018-12-09T10:55:02.881Z,96244.63
2018-12-09T10:57:27.136Z,96257.20
2018-12-09T10:58:37.690Z,96247.16
2018-12-09T11:00:56.536Z,96251.33
2018-12-09T11:03:18.537Z,96246.68
2018-12-09T11:05:40.074Z,96239.55
2018-12-09T11:06:48.504Z,96235.48
2018-12-09T11:07:53.713Z,96235.72
2018-12-09T11:09:00.632Z,96250.91
2018-12-09T11:15:13.090Z,96254.69
2018-12-09T11:17:39.793Z,96244.23
2018-12-09T11:23:40.417Z,96249.84
2018-12-09T11:24:49.690Z,96232.13
2018-12-09T11:26:04.294Z,96229.53
2018-12-09T11:27:10.863Z,96249.69
2018-12-09T11:28:17.232Z,96258.16
2018-12-09T11:45:53.402Z,96252.69
2018-12-09T11:47:03.444Z,96264.63
2018-12-09T12:42:43.371Z,96309.70
2018-12-09T12:47:36.809Z,96321.34
2018-12-09T14:06:51.938Z,96553.84
2018-12-09T14:07:55.046Z,96557.42
2018-12-09T14:08:57.966Z,96554.84
2018-12-09T14:11:13.241Z,96543.86
2018-12-09T14:12:16.640Z,96556.28
2018-12-09T14:13:19.929Z,96557.42
2018-12-09T14:14:23.445Z,96558.40
2018-12-09T14:15:26.291Z,96546.81
2018-12-09T14:16:29.164Z,96556.34
2018-12-09T14:17:32.494Z,96559.45
2018-12-09T14:18:35.380Z,96563.45
2018-12-09T14:19:40.603Z,96555.84
2018-12-09T14:20:44.632Z,96562.25
2018-12-09T14:21:48.488Z,96568.28
2018-12-09T14:22:54.515Z,96568.61
2018-12-09T14:24:00.642Z,96578.13
2018-12-09T14:25:03.756Z,96573.27
2018-12-09T14:26:06.901Z,96563.18
2018-12-09T14:27:09.837Z,96571.02
2018-12-09T14:28:12.746Z,96581.03
2018-12-09T14:29:15.879Z,96572.13
2018-12-09T14:30:18.761Z,96582.52
2018-12-09T14:31:22.579Z,96575.03
2018-12-09T14:32:27.512Z,96581.23
2018-12-09T14:33:33.516Z,96583.20
2018-12-09T14:34:36.813Z,96588.41
2018-12-09T14:35:39.860Z,96590.00
2018-12-09T14:36:45.368Z,96591.73
2018-12-09T14:37:49.347Z,96587.35
2018-12-09T14:38:53.388Z,96588.61
2018-12-09T14:39:56.308Z,96585.72
2018-12-09T14:40:59.929Z,96586.50
2018-12-09T14:42:03.714Z,96594.78
2018-12-09T14:43:06.864Z,96606.72
2018-12-09T14:44:09.816Z,96615.72
2018-12-09T14:45:14.154Z,96623.56
2018-12-09T14:46:17.031Z,96614.91
2018-12-09T14:47:20.805Z,96621.55
2018-12-09T14:48:24.587Z,96626.86
2018-12-09T14:49:27.434Z,96629.02
2018-12-09T14:50:30.332Z,96625.25
2018-12-09T14:51:33.665Z,96635.13
2018-12-09T14:52:36.571Z,96629.64
2018-12-09T14:53:39.772Z,96632.39
2018-12-09T14:54:44.509Z,96632.39
2018-12-09T14:55:48.540Z,96638.27
2018-12-09T14:56:53.610Z,96638.41
2018-12-09T14:57:58.527Z,96641.01
2018-12-09T14:59:01.382Z,96643.38
2018-12-09T15:00:04.919Z,96639.19
2018-12-09T15:01:07.876Z,96649.55
2018-12-09T15:02:12.329Z,96633.51
2018-12-09T15:03:15.205Z,96643.76
2018-12-09T15:04:19.217Z,96654.22
2018-12-09T15:05:22.731Z,96655.71
2018-12-09T15:06:26.316Z,96654.27
2018-12-09T15:07:29.326Z,96654.50
2018-12-09T15:08:32.406Z,96651.95
2018-12-09T15:09:39.693Z,96649.64
2018-12-09T15:10:43.667Z,96660.04
2018-12-09T15:11:49.776Z,96651.95
2018-12-09T15:12:54.380Z,96656.77
2018-12-09T15:13:57.430Z,96655.09
2018-12-09T15:15:00.304Z,96654.13
2018-12-09T15:16:06.337Z,96654.45
2018-12-09T15:17:09.860Z,96661.64
2018-12-09T15:18:13.398Z,96655.04
2018-12-09T15:19:17.458Z,96655.28
2018-12-09T15:20:20.394Z,96663.28
2018-12-09T15:21:23.345Z,96667.09
2018-12-09T15:22:27.597Z,96663.04
2018-12-09T15:23:30.817Z,96671.42
2018-12-09T15:24:41.162Z,96661.92
2018-12-09T15:25:38.792Z,96664.58
2018-12-09T15:26:41.770Z,96663.27
2018-12-09T15:27:45.141Z,96666.88
2018-12-09T15:28:48.355Z,96666.36
2018-12-09T15:29:52.706Z,96668.53
2018-12-09T15:30:55.799Z,96666.56
2018-12-09T15:31:58.815Z,96671.33
2018-12-09T15:33:02.648Z,96663.93
2018-12-09T15:34:05.529Z,96674.39
2018-12-09T15:35:08.564Z,96676.31
2018-12-09T15:36:11.861Z,96679.66
2018-12-09T15:37:14.721Z,96674.59
2018-12-09T15:38:19.269Z,96674.69
2018-12-09T15:39:22.350Z,96673.91
2018-12-09T15:40:25.595Z,96675.70
2018-12-09T15:41:28.572Z,96674.16
2018-12-09T15:42:31.755Z,96670.10
2018-12-09T15:43:34.967Z,96684.41
2018-12-09T15:44:37.834Z,96678.87
2018-12-09T15:45:41.098Z,96679.92
2018-12-09T15:46:44.563Z,96678.00
2018-12-09T15:47:48.240Z,96692.45
2018-12-09T15:48:51.489Z,96695.25
2018-12-09T15:49:55.419Z,96699.84
2018-12-09T15:50:59.040Z,96699.61
2018-12-09T15:52:02.360Z,96709.30
2018-12-09T15:53:07.113Z,96711.13
2018-12-09T15:54:10.018Z,96704.33
2018-12-09T15:55:14.210Z,96710.94
2018-12-09T15:56:17.228Z,96708.05
2018-12-09T15:57:21.413Z,96716.91
2018-12-09T15:58:24.762Z,96710.06
2018-12-09T15:59:32.060Z,96705.67
2018-12-09T16:00:39.880Z,96707.50
2018-12-09T16:01:43.021Z,96716.72
2018-12-09T16:02:46.411Z,96716.95
2018-12-09T16:03:49.406Z,96728.20
2018-12-09T16:04:53.599Z,96725.40
2018-12-09T16:05:56.555Z,96726.66
2018-12-09T16:06:59.819Z,96742.95
2018-12-09T16:09:12.923Z,96739.96
2018-12-09T16:10:17.681Z,96743.91
2018-12-09T16:11:20.601Z,96745.25
2018-12-09T16:12:23.885Z,96754.80
2018-12-09T16:13:26.843Z,96749.27
2018-12-09T16:14:32.274Z,96750.70
2018-12-09T16:15:35.162Z,96751.34
2018-12-09T16:16:39.369Z,96762.86
2018-12-09T16:17:46.275Z,96765.38
2018-12-09T16:18:50.059Z,96766.00
2018-12-09T16:19:53.968Z,96768.61
2018-12-09T16:20:57.957Z,96774.58
2018-12-09T16:22:00.818Z,96772.42
2018-12-09T16:23:05.091Z,96782.25
2018-12-09T16:24:08.088Z,96786.07
2018-12-09T16:25:14.104Z,96791.38
2018-12-09T16:26:17.652Z,96792.87
2018-12-09T16:27:21.265Z,96800.64
2018-12-09T16:28:24.269Z,96801.20
2018-12-09T16:29:30.323Z,96807.19
2018-12-09T16:30:33.375Z,96808.30
2018-12-09T16:31:36.698Z,96810.90
2018-12-09T16:32:39.626Z,96810.66
2018-12-09T16:33:42.670Z,96813.36
2018-12-09T16:34:45.772Z,96807.96
2018-12-09T16:35:49.752Z,96812.70
2018-12-09T16:36:57.947Z,96822.15
2018-12-09T16:38:02.472Z,96821.38
2018-12-09T16:39:06.539Z,96829.23
2018-12-09T16:40:10.168Z,96826.39
2018-12-09T16:41:13.174Z,96834.59
2018-12-09T16:42:16.175Z,96821.98
2018-12-09T16:43:20.105Z,96826.13
2018-12-09T16:44:23.508Z,96820.16
2018-12-09T16:45:27.270Z,96822.08
2018-12-09T16:46:30.277Z,96829.13
2018-12-09T16:47:34.957Z,96827.58
2018-12-09T16:48:39.349Z,96839.16
2018-12-09T16:49:42.514Z,96835.11
2018-12-09T16:50:50.673Z,96841.62
2018-12-09T16:51:53.846Z,96841.62
2018-12-09T16:52:58.493Z,96837.56
2018-12-09T16:54:01.402Z,96833.75
2018-12-09T16:55:05.421Z,96825.41
2018-12-09T16:56:09.545Z,96836.03
2018-12-09T16:57:14.574Z,96841.12
2018-12-09T16:58:20.674Z,96838.19
2018-12-09T16:59:24.521Z,96837.52
2018-12-09T17:00:27.743Z,96836.41
2018-12-09T17:01:30.634Z,96841.48
2018-12-09T17:02:34.804Z,96847.13
2018-12-09T17:03:40.689Z,96847.81
2018-12-09T17:04:45.078Z,96854.34
2018-12-09T17:05:48.095Z,96847.69
2018-12-09T17:06:51.695Z,96845.42
2018-12-09T17:07:55.085Z,96856.66
2018-12-09T17:08:57.994Z,96873.75
2018-12-09T17:10:02.485Z,96867.38
2018-12-09T17:11:06.540Z,96870.43
2018-12-09T17:12:09.621Z,96876.31
2018-12-09T17:13:14.309Z,96869.89
2018-12-09T17:14:17.196Z,96879.59
2018-12-09T17:15:20.181Z,96886.64
2018-12-09T17:16:24.276Z,96889.05
2018-12-09T17:17:27.284Z,96894.75
2018-12-09T17:18:30.149Z,96897.36
2018-12-09T17:19:33.095Z,96895.80
2018-12-09T17:20:36.107Z,96901.98
2018-12-09T17:21:39.837Z,96899.05
2018-12-09T17:22:46.630Z,96898.71
2018-12-09T17:23:50.506Z,96889.83
2018-12-09T17:24:53.396Z,96897.93
2018-12-09T17:25:56.512Z,96871.78
2018-12-09T17:27:00.475Z,96902.12
2018-12-09T17:28:03.622Z,96919.94
2018-12-09T17:29:07.326Z,96904.55
2018-12-09T17:43:55.623Z,96963.80
2018-12-09T17:45:00.551Z,96954.92
2018-12-09T17:46:04.221Z,96967.95
2018-12-09T17:47:07.442Z,96972.81
2018-12-09T17:48:10.960Z,96968.05
2018-12-09T17:49:14.534Z,96974.02
2018-12-09T17:50:18.479Z,96953.75
2018-12-09T17:51:22.029Z,96966.51
2018-12-09T17:52:25.654Z,96972.34
2018-12-09T17:53:29.235Z,96974.55
2018-12-09T17:54:32.601Z,96985.61
2018-12-09T17:55:36.194Z,96979.52
2018-12-09T17:56:39.081Z,96985.79
2018-12-09T17:57:43.439Z,96978.25
2018-12-09T17:58:48.633Z,96977.44
2018-12-09T17:59:52.217Z,96984.51
2018-12-09T18:00:56.452Z,96980.88
2018-12-09T18:01:59.390Z,96992.77
2018-12-09T18:03:02.361Z,96994.64
2018-12-09T18:04:05.570Z,97001.12
2018-12-09T18:05:09.238Z,97003.05
2018-12-09T18:12:47.932Z,97031.45
2018-12-09T18:13:50.274Z,97022.30
2018-12-09T18:14:55.315Z,97031.61
2018-12-09T18:16:04.199Z,97034.55
2018-12-09T18:17:08.179Z,97036.69
2018-12-09T18:18:12.471Z,97030.83
2018-12-09T18:19:17.410Z,97045.60
2018-12-09T18:20:21.862Z,97042.66
2018-12-09T18:21:25.767Z,97050.77
2018-12-09T18:22:29.506Z,97042.66
2018-12-09T18:23:33.383Z,97052.90
2018-12-09T18:24:36.859Z,97060.23
2018-12-09T18:25:42.714Z,97050.38
2018-12-09T18:26:47.311Z,97056.59
2018-12-09T18:27:50.853Z,97071.66
2018-12-09T18:28:58.218Z,97063.64
2018-12-09T18:30:02.166Z,97055.33
2018-12-09T18:31:05.406Z,97071.30
2018-12-09T18:32:11.049Z,97068.59
2018-12-09T18:33:13.951Z,97077.24
2018-12-09T18:34:16.815Z,97085.35
2018-12-09T18:35:22.848Z,97071.28
2018-12-09T18:36:26.027Z,97085.67
2018-12-09T18:37:29.681Z,97089.23
2018-12-09T18:38:33.059Z,97081.38
2018-12-09T18:39:35.949Z,97095.95
2018-12-09T18:40:38.800Z,97094.98
2018-12-09T18:41:43.232Z,97100.55
2018-12-09T18:42:46.773Z,97102.92
2018-12-09T18:43:52.117Z,97112.16
2018-12-09T18:44:55.265Z,97111.11
2018-12-09T18:45:58.092Z,97109.22
2018-12-09T18:47:01.423Z,97104.92
2018-12-09T18:48:04.853Z,97103.24
2018-12-09T18:49:09.399Z,97120.03
2018-12-09T18:50:13.553Z,97107.87
2018-12-09T18:51:17.576Z,97121.38
2018-12-09T18:52:23.670Z,97134.08
2018-12-09T18:53:27.785Z,97121.70
2018-12-09T18:54:30.673Z,97122.90
2018-12-09T18:55:33.813Z,97136.00
2018-12-09T18:56:37.306Z,97129.82
2018-12-09T18:57:40.850Z,97137.92
2018-12-09T18:58:44.138Z,97150.70
2018-12-09T18:59:47.023Z,97148.16
2018-12-09T19:00:49.924Z,97148.00
2018-12-09T19:01:52.793Z,97148.48
2018-12-09T19:02:55.845Z,97144.44
2018-12-09T19:03:59.097Z,97144.97
2018-12-09T19:05:03.523Z,97147.92
2018-12-09T19:06:06.606Z,97140.75
2018-12-09T19:07:10.348Z,97152.70
2018-12-09T19:08:17.235Z,97155.08
2018-12-09T19:09:20.254Z,97153.23
2018-12-09T19:10:25.511Z,97156.10
2018-12-09T19:11:28.464Z,97158.64
2018-12-09T19:12:31.968Z,97162.94
2018-12-09T19:13:36.747Z,97167.77
2018-12-09T19:14:40.745Z,97177.18
2018-12-09T19:15:44.738Z,97179.94
2018-12-09T19:16:48.015Z,97183.04
2018-12-09T19:17:50.846Z,97181.53
2018-12-09T19:18:53.997Z,97192.66
2018-12-09T19:19:57.228Z,97177.88
2018-12-09T19:21:00.829Z,97194.66
2018-12-09T19:22:03.782Z,97199.50